Olmida — ZCNU4 — position and weather

sailwx.info

Track history (hours):
 
Tides and Currents Weather Stations Pressure Air Temp Water Temp Dewpoint Dewpoint Depression Visibility Wind Speed Wind Dir Waves Ship Positions

Olmida

Last reported at 2015-May-06 17:15 UTC. Time now 2015-May-07 03:35 UTC.
Position N 43°42' E 007°23'.

; draft 3.2 m.

Type: Pleasure craft. MMSI: 319196000.

Date/timePositionNaut miles runAvg speedWind from/ knotsBaromVisibWave heightAir tempDewpointWater temp
2015-May-06 17:15N 43°42' E 007°23'912.7
2015-May-06 16:33N 43°36' E 007°13'9 7.0
2015-May-06 15:19N 43°32' E 007°03'0 0.0
2015-May-06 14:31N 43°32' E 007°03'0 0.0
2015-May-06 12:18N 43°32' E 007°03'0 0.0
2015-May-06 11:21N 43°32' E 007°03'1 1.1
2015-May-06 10:22N 43°32' E 007°04'  
2015-May-03 16:33N 43°40' E 007°20'1313.3
2015-May-03 15:33N 43°32' E 007°06'2 1.6
2015-May-03 14:10N 43°32' E 007°03'0 0.0
2015-May-03 12:31N 43°32' E 007°03'0 0.0
2015-May-03 11:32N 43°32' E 007°03'7 6.7
2015-May-03 10:33N 43°35' E 007°11'  
2015-Apr-27 14:31N 43°39' E 007°19'1212.9
2015-Apr-27 13:33N 43°31' E 007°05'  
Track history (hours):
 
Tides and Currents Weather Stations Pressure Air Temp Water Temp Dewpoint Dewpoint Depression Visibility Wind Speed Wind Dir Waves Ship Positions

Olmida

Last reported at 2015-May-06 17:15 UTC. Time now 2015-May-07 03:35 UTC.
Position N 43°42' E 007°23'.

; draft 3.2 m.

Type: Pleasure craft. MMSI: 319196000.

Date/timePositionNaut miles runAvg speedWind from/ knotsBaromVisibWave heightAir tempDewpointWater temp
2015-May-06 17:15N 43°42' E 007°23'912.7
2015-May-06 16:33N 43°36' E 007°13'9 7.0
2015-May-06 15:19N 43°32' E 007°03'0 0.0
2015-May-06 14:31N 43°32' E 007°03'0 0.0
2015-May-06 12:18N 43°32' E 007°03'0 0.0
2015-May-06 11:21N 43°32' E 007°03'1 1.1
2015-May-06 10:22N 43°32' E 007°04'  
2015-May-03 16:33N 43°40' E 007°20'1313.3
2015-May-03 15:33N 43°32' E 007°06'2 1.6
2015-May-03 14:10N 43°32' E 007°03'0 0.0
2015-May-03 12:31N 43°32' E 007°03'0 0.0
2015-May-03 11:32N 43°32' E 007°03'7 6.7
2015-May-03 10:33N 43°35' E 007°11'  
2015-Apr-27 14:31N 43°39' E 007°19'1212.9
2015-Apr-27 13:33N 43°31' E 007°05'  

Dump ship's entire track history